Time;durP1;ratioP1;P1;durP2;ratioP2;P2;SDS_P1;SDS_P2;PMS_P1;PMS_P2;Temp;Humidity;BMP_temperature;BMP_pressure;BME280_temperature;BME280_humidity;BME280_pressure;Samples;Min_cycle;Max_cycle;Signal;HPM_P1;HPM_P2
2023/08/31 00:01:18;;;;;;;30.87;29.47;;;;;;;;;;5054105;28;20435;-40
2023/08/31 00:03:45;;;;;;;32.63;31.13;;;;;;;;;;5053604;28;20534;-40
2023/08/31 00:06:13;;;;;;;35.83;34.13;;;;;;;;;;5054232;28;20483;-40
2023/08/31 00:08:42;;;;;;;34.20;32.53;;;;;;;;;;5063627;28;20806;-43
2023/08/31 00:11:09;;;;;;;35.50;34.00;;;;;;;;;;5074000;28;20434;-43
2023/08/31 00:13:38;;;;;;;35.60;33.80;;;;;;;;;;5072666;28;20934;-40
2023/08/31 00:16:05;;;;;;;36.40;34.60;;;;;;;;;;5050048;28;20482;-40
2023/08/31 00:18:35;;;;;;;35.47;33.97;;;;;;;;;;5058758;28;20430;-41
2023/08/31 00:21:03;;;;;;;41.47;39.47;;;;;;;;;;5043376;28;20463;-40
2023/08/31 00:23:31;;;;;;;41.83;39.83;;;;;;;;;;5050385;28;20548;-40
2023/08/31 00:25:59;;;;;;;38.30;36.50;;;;;;;;;;5049628;28;20447;-41
2023/08/31 00:28:27;;;;;;;40.00;38.30;;;;;;;;;;5051410;28;20517;-41
2023/08/31 00:30:54;;;;;;;39.70;37.93;;;;;;;;;;5069834;28;20441;-40
2023/08/31 00:33:22;;;;;;;39.93;38.13;;;;;;;;;;5062031;28;20541;-40
2023/08/31 00:35:49;;;;;;;40.23;38.53;;;;;;;;;;5056748;28;21035;-41
2023/08/31 00:38:17;;;;;;;41.23;39.30;;;;;;;;;;5044724;28;21087;-41
2023/08/31 00:40:45;;;;;;;43.40;41.20;;;;;;;;;;5050845;28;20463;-41
2023/08/31 00:43:17;;;;;;;43.70;41.67;;;;;;;;;;5049891;28;20534;-41
2023/08/31 00:45:45;;;;;;;40.67;39.13;;;;;;;;;;5052558;28;21013;-40
2023/08/31 00:48:16;;;;;;;41.40;39.90;;;;;;;;;;5070059;28;20930;-40
2023/08/31 00:50:44;;;;;;;40.43;38.67;;;;;;;;;;5069297;28;20442;-43
2023/08/31 00:53:12;;;;;;;39.13;37.53;;;;;;;;;;5070161;28;20458;-40
2023/08/31 00:55:40;;;;;;;42.93;41.33;;;;;;;;;;5059443;28;20534;-40
2023/08/31 00:58:07;;;;;;;39.73;38.23;;;;;;;;;;5046475;28;20475;-43
2023/08/31 01:00:41;;;;;;;40.70;38.80;;;;;;;;;;5038693;28;20754;-41
2023/08/31 01:03:13;;;;;;;41.90;40.07;;;;;;;;;;5042550;28;20505;-43
2023/08/31 01:05:47;;;;;;;45.23;43.33;;;;;;;;;;5041577;28;20456;-40
2023/08/31 01:08:20;;;;;;;43.90;42.00;;;;;;;;;;5050833;28;20898;-41
2023/08/31 01:10:52;;;;;;;44.17;42.33;;;;;;;;;;5048518;28;20431;-40
2023/08/31 01:13:22;;;;;;;49.43;47.50;;;;;;;;;;5044048;28;21016;-40
2023/08/31 01:15:54;;;;;;;45.00;43.40;;;;;;;;;;5049285;28;20463;-40
2023/08/31 01:18:24;;;;;;;46.23;44.27;;;;;;;;;;5042430;28;20557;-42
2023/08/31 01:20:57;;;;;;;48.30;46.40;;;;;;;;;;5050563;28;20489;-40
2023/08/31 01:23:30;;;;;;;44.77;43.10;;;;;;;;;;5041294;28;20524;-43
2023/08/31 01:25:59;;;;;;;43.70;42.00;;;;;;;;;;5049788;28;20459;-41
2023/08/31 01:28:27;;;;;;;45.80;44.03;;;;;;;;;;5049921;28;20431;-43
2023/08/31 01:30:54;;;;;;;42.20;40.40;;;;;;;;;;5041974;28;20482;-41
2023/08/31 01:33:21;;;;;;;44.50;42.77;;;;;;;;;;5043503;28;20543;-42
2023/08/31 01:35:52;;;;;;;44.77;43.03;;;;;;;;;;5037512;28;20537;-40
2023/08/31 01:38:22;;;;;;;43.77;41.87;;;;;;;;;;5029757;28;20505;-41
2023/08/31 01:40:54;;;;;;;44.40;42.50;;;;;;;;;;5047467;28;20536;-42
2023/08/31 01:43:24;;;;;;;42.70;41.00;;;;;;;;;;5048110;28;20459;-41
2023/08/31 01:45:52;;;;;;;43.00;41.20;;;;;;;;;;5040192;28;20460;-42
2023/08/31 01:48:19;;;;;;;41.50;40.10;;;;;;;;;;5049488;28;20450;-40
2023/08/31 01:50:47;;;;;;;40.50;38.90;;;;;;;;;;5049322;28;20526;-44
2023/08/31 01:53:14;;;;;;;40.70;39.10;;;;;;;;;;5040743;28;20482;-41
2023/08/31 01:55:41;;;;;;;42.70;41.03;;;;;;;;;;5048534;28;20538;-41
2023/08/31 01:58:09;;;;;;;44.23;42.20;;;;;;;;;;5041313;28;20467;-40
2023/08/31 02:00:38;;;;;;;41.63;40.13;;;;;;;;;;5050205;28;20530;-44
2023/08/31 02:03:07;;;;;;;41.50;39.97;;;;;;;;;;5048656;28;20459;-41
2023/08/31 02:05:35;;;;;;;42.93;40.77;;;;;;;;;;5041615;28;20495;-45
2023/08/31 02:08:03;;;;;;;46.43;44.60;;;;;;;;;;5048770;28;20433;-40
2023/08/31 02:10:30;;;;;;;46.47;44.47;;;;;;;;;;5043256;28;20863;-40
2023/08/31 02:12:58;;;;;;;43.80;42.20;;;;;;;;;;5044805;28;20458;-43
2023/08/31 02:15:25;;;;;;;47.73;45.63;;;;;;;;;;5043554;28;20482;-40
2023/08/31 02:17:55;;;;;;;45.20;43.40;;;;;;;;;;5051519;28;20474;-40
2023/08/31 02:20:24;;;;;;;45.53;43.83;;;;;;;;;;5052935;28;20930;-41
2023/08/31 02:22:51;;;;;;;46.13;44.23;;;;;;;;;;5043974;28;20821;-39
2023/08/31 02:25:19;;;;;;;42.07;40.30;;;;;;;;;;5051874;28;20465;-39
2023/08/31 02:27:46;;;;;;;39.27;37.87;;;;;;;;;;5053122;28;20494;-43
2023/08/31 02:30:14;;;;;;;40.50;38.87;;;;;;;;;;5053489;28;20463;-41
2023/08/31 02:32:41;;;;;;;41.33;39.70;;;;;;;;;;5044280;28;20436;-43
2023/08/31 02:35:12;;;;;;;39.80;38.17;;;;;;;;;;5040418;28;20466;-42
2023/08/31 02:37:39;;;;;;;37.17;35.57;;;;;;;;;;5057120;28;21070;-40
2023/08/31 02:40:08;;;;;;;36.60;35.10;;;;;;;;;;5056304;28;20518;-41
2023/08/31 02:42:35;;;;;;;33.87;32.43;;;;;;;;;;5057065;28;20435;-40
2023/08/31 02:45:03;;;;;;;32.47;30.97;;;;;;;;;;5055399;28;20982;-40
2023/08/31 02:47:31;;;;;;;30.07;28.87;;;;;;;;;;5062775;28;20820;-41
2023/08/31 02:49:59;;;;;;;29.50;28.37;;;;;;;;;;5057155;28;20438;-41
2023/08/31 02:52:28;;;;;;;27.13;26.13;;;;;;;;;;5056104;28;20436;-40
2023/08/31 02:54:57;;;;;;;26.50;25.50;;;;;;;;;;5055720;28;20542;-40
2023/08/31 02:57:24;;;;;;;25.87;24.87;;;;;;;;;;5056046;28;20431;-40
2023/08/31 02:59:51;;;;;;;26.40;25.20;;;;;;;;;;5056065;28;20506;-41
2023/08/31 03:02:19;;;;;;;26.07;25.00;;;;;;;;;;5056733;28;20968;-40
2023/08/31 03:04:47;;;;;;;25.40;24.40;;;;;;;;;;5054619;28;20502;-43
2023/08/31 03:07:15;;;;;;;25.63;24.53;;;;;;;;;;5056092;28;20435;-42
2023/08/31 03:09:42;;;;;;;25.50;24.40;;;;;;;;;;5056196;28;20444;-40
2023/08/31 03:12:11;;;;;;;25.33;24.17;;;;;;;;;;5047620;28;20914;-43
2023/08/31 03:14:38;;;;;;;23.20;22.37;;;;;;;;;;5054986;28;20549;-40
2023/08/31 03:17:06;;;;;;;24.63;23.30;;;;;;;;;;5057864;28;20626;-41
2023/08/31 03:19:33;;;;;;;25.20;24.10;;;;;;;;;;5076112;28;20505;-40
2023/08/31 03:22:01;;;;;;;25.40;24.50;;;;;;;;;;5072907;28;20430;-40
2023/08/31 03:24:28;;;;;;;26.57;25.17;;;;;;;;;;5055856;28;20474;-43
2023/08/31 03:26:56;;;;;;;25.67;24.67;;;;;;;;;;5054892;28;20439;-40
2023/08/31 03:29:25;;;;;;;25.77;24.87;;;;;;;;;;5061317;28;20431;-43
2023/08/31 03:31:52;;;;;;;26.97;25.87;;;;;;;;;;5075364;28;20458;-39
2023/08/31 03:34:19;;;;;;;25.57;24.50;;;;;;;;;;5071285;28;20515;-40
2023/08/31 03:36:47;;;;;;;26.70;25.60;;;;;;;;;;5055290;28;20466;-42
2023/08/31 03:39:14;;;;;;;27.07;26.00;;;;;;;;;;5054807;28;20463;-40
2023/08/31 03:41:42;;;;;;;27.27;26.27;;;;;;;;;;5054328;28;20942;-40
2023/08/31 03:44:09;;;;;;;26.40;25.50;;;;;;;;;;5055170;28;20451;-43
2023/08/31 03:46:38;;;;;;;25.13;24.23;;;;;;;;;;5069235;28;20461;-44
2023/08/31 03:49:06;;;;;;;25.97;24.97;;;;;;;;;;5064030;28;20481;-41
2023/08/31 03:51:33;;;;;;;25.23;24.23;;;;;;;;;;5070058;28;20436;-40
2023/08/31 03:54:01;;;;;;;29.23;27.80;;;;;;;;;;5066914;28;20478;-42
2023/08/31 03:56:28;;;;;;;29.20;28.00;;;;;;;;;;5063185;28;20455;-40
2023/08/31 03:58:56;;;;;;;28.93;27.73;;;;;;;;;;5052355;28;20472;-46
2023/08/31 04:01:24;;;;;;;32.10;30.40;;;;;;;;;;5061184;28;20455;-43
2023/08/31 04:03:53;;;;;;;33.63;32.13;;;;;;;;;;5059997;28;20459;-42
2023/08/31 04:06:20;;;;;;;35.97;34.27;;;;;;;;;;5060984;28;20526;-43
2023/08/31 04:08:48;;;;;;;38.63;36.50;;;;;;;;;;5060720;28;20439;-41
2023/08/31 04:11:15;;;;;;;38.40;36.50;;;;;;;;;;5060698;28;20431;-40
2023/08/31 04:13:43;;;;;;;40.57;38.53;;;;;;;;;;5052477;28;20470;-40
2023/08/31 04:16:10;;;;;;;41.57;39.47;;;;;;;;;;5061070;28;20455;-41
2023/08/31 04:18:38;;;;;;;44.20;41.73;;;;;;;;;;5052228;28;20482;-46
2023/08/31 04:21:06;;;;;;;43.40;41.60;;;;;;;;;;5060862;28;20438;-43
2023/08/31 04:23:34;;;;;;;47.73;45.03;;;;;;;;;;5051292;28;20495;-46
2023/08/31 04:26:10;;;;;;;47.80;45.37;;;;;;;;;;5059734;28;20523;-41
2023/08/31 04:28:37;;;;;;;49.50;47.30;;;;;;;;;;5060244;28;20934;-41
2023/08/31 04:31:05;;;;;;;47.33;45.13;;;;;;;;;;5059726;28;20431;-43
2023/08/31 04:33:34;;;;;;;49.77;47.27;;;;;;;;;;5059711;28;20478;-45
2023/08/31 04:36:03;;;;;;;52.27;49.87;;;;;;;;;;5059751;28;20493;-44
2023/08/31 04:38:32;;;;;;;52.93;50.23;;;;;;;;;;5060204;28;20475;-40
2023/08/31 04:41:00;;;;;;;53.90;50.90;;;;;;;;;;5060042;28;20435;-43
2023/08/31 04:43:28;;;;;;;53.57;50.83;;;;;;;;;;5060139;28;20455;-40
2023/08/31 04:45:55;;;;;;;50.43;48.03;;;;;;;;;;5059368;28;20466;-43
2023/08/31 04:48:23;;;;;;;50.90;48.23;;;;;;;;;;5052006;28;20461;-41
2023/08/31 04:50:50;;;;;;;52.73;49.93;;;;;;;;;;5059618;28;20432;-40
2023/08/31 04:53:18;;;;;;;56.53;53.73;;;;;;;;;;5055759;28;20455;-40
2023/08/31 04:55:47;;;;;;;52.37;49.90;;;;;;;;;;5058068;28;20511;-43
2023/08/31 04:58:14;;;;;;;52.13;49.63;;;;;;;;;;5071281;28;20448;-40
2023/08/31 05:00:44;;;;;;;52.23;49.70;;;;;;;;;;5064139;28;20999;-39
2023/08/31 05:03:11;;;;;;;51.60;49.00;;;;;;;;;;5059186;28;20447;-41
2023/08/31 05:05:39;;;;;;;48.30;45.83;;;;;;;;;;5064343;28;20479;-44
2023/08/31 05:08:07;;;;;;;48.73;46.43;;;;;;;;;;5060014;28;20427;-40
2023/08/31 05:10:34;;;;;;;45.93;43.53;;;;;;;;;;5060625;28;21007;-40
2023/08/31 05:13:04;;;;;;;45.43;43.23;;;;;;;;;;5059367;28;20473;-41
2023/08/31 05:15:33;;;;;;;43.17;40.87;;;;;;;;;;5058997;28;20459;-42
2023/08/31 05:18:03;;;;;;;41.30;39.40;;;;;;;;;;5058952;28;20578;-40
2023/08/31 05:20:30;;;;;;;43.80;41.50;;;;;;;;;;5053605;28;20474;-40
2023/08/31 05:22:58;;;;;;;36.27;34.40;;;;;;;;;;5050962;28;20520;-40
2023/08/31 05:25:25;;;;;;;36.73;34.33;;;;;;;;;;5059186;28;20461;-43
2023/08/31 05:27:55;;;;;;;35.30;33.60;;;;;;;;;;5059599;28;20438;-40
2023/08/31 05:30:24;;;;;;;35.80;33.90;;;;;;;;;;5050919;28;20436;-40
2023/08/31 05:32:51;;;;;;;32.73;31.23;;;;;;;;;;5050520;28;20455;-44
2023/08/31 05:35:19;;;;;;;31.00;29.27;;;;;;;;;;5051804;28;20518;-42
2023/08/31 05:37:46;;;;;;;31.00;29.47;;;;;;;;;;5059561;28;20494;-40
2023/08/31 05:40:14;;;;;;;29.47;27.77;;;;;;;;;;5059506;28;20474;-41
2023/08/31 05:42:42;;;;;;;31.40;29.90;;;;;;;;;;5059521;28;20799;-43
2023/08/31 05:45:10;;;;;;;29.60;27.90;;;;;;;;;;5058004;28;20451;-47
2023/08/31 05:47:39;;;;;;;28.10;26.57;;;;;;;;;;5058542;28;20443;-40
2023/08/31 05:50:07;;;;;;;33.63;30.60;;;;;;;;;;5058474;28;20477;-39
2023/08/31 05:52:35;;;;;;;32.33;29.07;;;;;;;;;;5057841;28;20448;-42
2023/08/31 05:55:02;;;;;;;31.10;28.70;;;;;;;;;;5058368;28;20463;-43
2023/08/31 05:57:30;;;;;;;29.50;27.60;;;;;;;;;;5058723;28;20447;-40
2023/08/31 05:59:57;;;;;;;29.77;28.37;;;;;;;;;;5049455;28;20514;-43
2023/08/31 06:02:25;;;;;;;29.60;27.70;;;;;;;;;;5058605;28;20459;-41
2023/08/31 06:04:54;;;;;;;29.00;27.40;;;;;;;;;;5053451;28;20534;-39
2023/08/31 06:07:21;;;;;;;27.87;26.47;;;;;;;;;;5061750;28;20498;-43
2023/08/31 06:09:49;;;;;;;27.90;26.50;;;;;;;;;;5082264;28;20545;-44
2023/08/31 06:12:16;;;;;;;26.50;25.00;;;;;;;;;;5081893;28;20484;-41
2023/08/31 06:14:43;;;;;;;25.10;24.10;;;;;;;;;;5066466;28;20466;-40
2023/08/31 06:17:12;;;;;;;23.90;22.70;;;;;;;;;;5061329;28;21000;-43
2023/08/31 06:19:41;;;;;;;23.43;22.40;;;;;;;;;;5061720;28;20506;-45
2023/08/31 06:22:10;;;;;;;23.27;22.30;;;;;;;;;;5060797;28;20441;-41
2023/08/31 06:24:37;;;;;;;19.90;19.20;;;;;;;;;;5060739;28;20455;-41
2023/08/31 06:27:05;;;;;;;17.57;16.47;;;;;;;;;;5061998;28;20423;-46
2023/08/31 06:29:32;;;;;;;16.30;15.40;;;;;;;;;;5061931;28;20430;-46
2023/08/31 06:32:00;;;;;;;15.90;15.20;;;;;;;;;;5061227;28;20480;-43
2023/08/31 06:34:27;;;;;;;14.27;13.07;;;;;;;;;;5061346;28;20827;-47
2023/08/31 06:36:57;;;;;;;14.57;13.87;;;;;;;;;;5061279;28;20434;-44
2023/08/31 06:39:26;;;;;;;13.33;12.70;;;;;;;;;;5061768;28;20472;-47
2023/08/31 06:41:54;;;;;;;13.63;12.73;;;;;;;;;;5061105;28;20435;-43
2023/08/31 06:44:21;;;;;;;13.30;12.50;;;;;;;;;;5061830;28;20532;-44
2023/08/31 06:46:49;;;;;;;11.00;10.50;;;;;;;;;;5060526;28;20546;-43
2023/08/31 06:49:16;;;;;;;10.07;9.57;;;;;;;;;;5080783;28;20437;-42
2023/08/31 06:51:44;;;;;;;11.57;10.87;;;;;;;;;;5066562;28;20430;-43
2023/08/31 06:54:12;;;;;;;11.10;10.50;;;;;;;;;;5061125;28;20485;-43
2023/08/31 06:56:42;;;;;;;11.40;10.80;;;;;;;;;;5060942;28;20470;-43
2023/08/31 06:59:09;;;;;;;10.23;9.73;;;;;;;;;;5064045;28;20450;-43
2023/08/31 07:01:37;;;;;;;10.47;9.70;;;;;;;;;;5081492;28;20496;-41
2023/08/31 07:04:05;;;;;;;10.57;9.83;;;;;;;;;;5081476;28;20480;-43
2023/08/31 07:06:32;;;;;;;10.03;9.30;;;;;;;;;;5058711;28;21022;-46
2023/08/31 07:09:00;;;;;;;11.43;10.60;;;;;;;;;;5058282;28;20434;-46
2023/08/31 07:11:28;;;;;;;8.77;8.47;;;;;;;;;;5061325;28;20807;-41
2023/08/31 07:13:57;;;;;;;8.67;8.00;;;;;;;;;;5060135;28;20550;-42
2023/08/31 07:16:25;;;;;;;7.40;6.93;;;;;;;;;;5059861;28;20458;-48
2023/08/31 07:18:52;;;;;;;8.73;8.37;;;;;;;;;;5060787;28;20556;-46
2023/08/31 07:21:20;;;;;;;7.83;7.43;;;;;;;;;;5055218;28;20558;-42
2023/08/31 07:23:48;;;;;;;6.83;6.50;;;;;;;;;;5050198;28;20589;-43
2023/08/31 07:26:15;;;;;;;6.73;6.30;;;;;;;;;;5059839;28;20467;-46
2023/08/31 07:28:43;;;;;;;6.13;5.83;;;;;;;;;;5060893;28;20850;-46
2023/08/31 07:31:13;;;;;;;7.00;6.37;;;;;;;;;;5059855;28;20438;-43
2023/08/31 07:33:40;;;;;;;6.37;6.17;;;;;;;;;;5060247;28;20457;-42
2023/08/31 07:36:08;;;;;;;7.20;6.70;;;;;;;;;;5059692;28;20459;-46
2023/08/31 07:38:36;;;;;;;6.73;6.33;;;;;;;;;;5060430;28;20442;-44
2023/08/31 07:41:04;;;;;;;6.93;6.63;;;;;;;;;;5059834;28;20528;-42
2023/08/31 07:43:31;;;;;;;6.60;6.40;;;;;;;;;;5060465;28;20545;-41
2023/08/31 07:45:59;;;;;;;5.93;5.63;;;;;;;;;;5058602;28;20485;-43
2023/08/31 07:48:28;;;;;;;6.10;5.80;;;;;;;;;;5056146;28;20439;-43
2023/08/31 07:50:55;;;;;;;5.93;5.73;;;;;;;;;;5055271;28;20474;-42
2023/08/31 07:53:23;;;;;;;5.53;5.33;;;;;;;;;;5059927;28;20458;-41
2023/08/31 07:55:55;;;;;;;6.03;5.83;;;;;;;;;;5059657;28;20526;-41
2023/08/31 07:58:22;;;;;;;5.60;5.30;;;;;;;;;;5059579;28;20435;-44
2023/08/31 08:00:50;;;;;;;5.00;4.80;;;;;;;;;;5060023;28;20539;-42
2023/08/31 08:03:17;;;;;;;5.20;5.00;;;;;;;;;;5059873;28;20861;-41
2023/08/31 08:05:46;;;;;;;5.03;4.83;;;;;;;;;;5059044;28;20811;-44
2023/08/31 08:08:14;;;;;;;5.37;5.07;;;;;;;;;;5043183;28;20463;-42
2023/08/31 08:10:42;;;;;;;5.30;4.90;;;;;;;;;;5060031;28;20667;-41
2023/08/31 08:13:10;;;;;;;5.53;5.23;;;;;;;;;;5059037;28;20486;-40
2023/08/31 08:15:38;;;;;;;5.20;4.90;;;;;;;;;;5060283;28;20478;-40
2023/08/31 08:18:06;;;;;;;5.23;5.03;;;;;;;;;;5059158;28;20438;-43
2023/08/31 08:20:33;;;;;;;6.43;5.40;;;;;;;;;;5059245;28;20462;-47
2023/08/31 08:23:02;;;;;;;5.53;5.23;;;;;;;;;;5044784;28;20486;-43
2023/08/31 08:25:30;;;;;;;5.70;5.20;;;;;;;;;;5050316;28;20479;-43
2023/08/31 08:27:57;;;;;;;6.00;5.70;;;;;;;;;;5058332;28;20435;-46
2023/08/31 08:30:25;;;;;;;7.90;7.10;;;;;;;;;;5058926;28;20497;-41
2023/08/31 08:32:52;;;;;;;9.17;8.57;;;;;;;;;;5057970;28;20509;-40
2023/08/31 08:35:20;;;;;;;11.40;10.60;;;;;;;;;;5058306;28;20485;-40
2023/08/31 08:37:47;;;;;;;10.70;10.00;;;;;;;;;;5058240;28;20445;-41
2023/08/31 08:40:16;;;;;;;9.33;8.93;;;;;;;;;;5059221;28;20522;-41
2023/08/31 08:42:44;;;;;;;10.50;9.80;;;;;;;;;;5058810;28;20431;-42
2023/08/31 08:45:15;;;;;;;10.13;9.50;;;;;;;;;;5058358;28;20458;-43
2023/08/31 08:47:43;;;;;;;9.50;8.60;;;;;;;;;;5058367;28;20492;-43
2023/08/31 08:50:11;;;;;;;9.30;8.70;;;;;;;;;;5058928;28;20439;-42
2023/08/31 08:52:39;;;;;;;8.90;8.30;;;;;;;;;;5053504;28;20472;-43
2023/08/31 08:55:07;;;;;;;9.17;8.43;;;;;;;;;;5054967;28;20459;-42
2023/08/31 08:57:36;;;;;;;7.63;7.33;;;;;;;;;;5058944;28;20431;-42
2023/08/31 09:00:04;;;;;;;7.50;7.20;;;;;;;;;;5058429;28;20447;-46
2023/08/31 09:02:32;;;;;;;7.83;7.33;;;;;;;;;;5042557;28;20514;-45
2023/08/31 09:05:00;;;;;;;6.63;6.33;;;;;;;;;;5056700;28;20459;-42
2023/08/31 09:07:30;;;;;;;6.90;6.50;;;;;;;;;;5058015;28;20439;-43
2023/08/31 09:09:57;;;;;;;4.77;4.63;;;;;;;;;;5050803;28;20522;-43
2023/08/31 09:12:25;;;;;;;4.57;4.30;;;;;;;;;;5056487;28;20466;-43
2023/08/31 09:15:00;;;;;;;4.87;4.57;;;;;;;;;;5057801;28;20458;-42
2023/08/31 09:17:38;;;;;;;4.53;4.33;;;;;;;;;;5042089;28;20515;-42
2023/08/31 09:20:06;;;;;;;4.30;4.10;;;;;;;;;;5058471;28;20426;-43
2023/08/31 09:22:34;;;;;;;4.60;4.30;;;;;;;;;;5031514;28;20462;-40
2023/08/31 09:25:02;;;;;;;4.17;3.97;;;;;;;;;;5054608;28;20898;-41
2023/08/31 09:27:31;;;;;;;4.10;3.90;;;;;;;;;;5058146;28;20437;-41
2023/08/31 09:30:00;;;;;;;4.03;3.93;;;;;;;;;;5058261;28;20480;-44
2023/08/31 09:32:27;;;;;;;6.77;5.57;;;;;;;;;;5057472;28;20965;-46
2023/08/31 09:34:55;;;;;;;4.53;4.30;;;;;;;;;;5057464;28;20532;-41
2023/08/31 09:37:41;;;;;;;4.27;4.00;;;;;;;;;;5049047;28;20431;-40
2023/08/31 09:40:08;;;;;;;4.63;4.43;;;;;;;;;;5057709;28;20521;-44
2023/08/31 09:42:40;;;;;;;5.00;4.70;;;;;;;;;;5058231;28;20463;-43
2023/08/31 09:45:09;;;;;;;5.87;5.37;;;;;;;;;;5061663;28;20522;-42
2023/08/31 09:47:36;;;;;;;10.07;5.50;;;;;;;;;;5043638;28;20440;-43
2023/08/31 09:50:04;;;;;;;4.77;4.47;;;;;;;;;;5058232;28;20434;-40
2023/08/31 09:52:32;;;;;;;4.77;4.37;;;;;;;;;;5061232;28;20427;-44
2023/08/31 09:55:01;;;;;;;5.17;4.67;;;;;;;;;;5062504;28;20469;-41
2023/08/31 09:57:29;;;;;;;4.60;4.40;;;;;;;;;;5059533;28;20888;-42
2023/08/31 10:00:15;;;;;;;5.53;4.93;;;;;;;;;;5059877;28;20438;-41
2023/08/31 10:02:43;;;;;;;4.70;4.50;;;;;;;;;;5063037;28;20527;-40
2023/08/31 10:05:11;;;;;;;6.03;5.63;;;;;;;;;;5060827;28;20466;-41
2023/08/31 10:07:38;;;;;;;4.73;4.40;;;;;;;;;;5062165;28;20518;-41
2023/08/31 10:10:07;;;;;;;5.17;4.87;;;;;;;;;;5060954;28;20431;-46
2023/08/31 10:12:36;;;;;;;5.27;4.80;;;;;;;;;;5060853;28;20569;-44
2023/08/31 10:15:04;;;;;;;5.27;4.90;;;;;;;;;;5061788;28;20996;-41
2023/08/31 10:17:33;;;;;;;4.37;4.27;;;;;;;;;;5061935;28;20434;-45
2023/08/31 10:20:03;;;;;;;4.53;4.40;;;;;;;;;;5062033;28;20854;-46
2023/08/31 10:22:32;;;;;;;5.30;5.07;;;;;;;;;;5051629;28;20478;-41
2023/08/31 10:25:00;;;;;;;5.00;4.70;;;;;;;;;;5048396;28;20472;-45
2023/08/31 10:27:28;;;;;;;5.60;5.33;;;;;;;;;;5050736;28;20505;-44
2023/08/31 10:29:55;;;;;;;5.80;5.43;;;;;;;;;;5056418;28;20431;-41
2023/08/31 10:32:23;;;;;;;6.10;5.70;;;;;;;;;;5059210;28;20466;-46
2023/08/31 10:35:08;;;;;;;5.43;5.13;;;;;;;;;;5054322;28;20450;-46
2023/08/31 10:37:36;;;;;;;5.37;5.17;;;;;;;;;;5062460;28;20438;-43
2023/08/31 10:40:11;;;;;;;5.07;4.87;;;;;;;;;;5061641;28;20503;-40
2023/08/31 10:42:45;;;;;;;4.83;4.63;;;;;;;;;;5061561;28;20465;-41
2023/08/31 10:45:13;;;;;;;4.40;4.30;;;;;;;;;;5061408;28;20500;-40
2023/08/31 10:47:41;;;;;;;4.90;4.63;;;;;;;;;;5061866;28;20435;-43
2023/08/31 10:50:23;;;;;;;4.63;4.40;;;;;;;;;;5061830;28;20488;-41
2023/08/31 10:52:50;;;;;;;6.90;4.80;;;;;;;;;;5061478;28;21027;-43
2023/08/31 10:55:18;;;;;;;12.53;4.57;;;;;;;;;;5059188;28;20459;-41
2023/08/31 10:57:45;;;;;;;10.37;4.90;;;;;;;;;;5060818;28;20934;-44
2023/08/31 11:00:13;;;;;;;8.90;4.60;;;;;;;;;;5059986;28;20435;-41
2023/08/31 11:02:43;;;;;;;8.90;4.93;;;;;;;;;;5059903;28;20470;-46
2023/08/31 11:05:11;;;;;;;4.63;4.40;;;;;;;;;;5059966;28;20459;-40
2023/08/31 11:07:41;;;;;;;5.30;4.93;;;;;;;;;;5044604;28;20465;-43
2023/08/31 11:10:13;;;;;;;4.57;4.07;;;;;;;;;;5061857;28;20438;-40
2023/08/31 11:12:41;;;;;;;10.50;5.73;;;;;;;;;;5044794;28;20427;-42
2023/08/31 11:15:09;;;;;;;4.67;3.60;;;;;;;;;;5060011;28;20993;-42
2023/08/31 11:17:40;;;;;;;4.10;3.90;;;;;;;;;;5060358;28;20432;-41
2023/08/31 11:20:09;;;;;;;4.03;3.83;;;;;;;;;;5059981;28;20441;-43
2023/08/31 11:22:41;;;;;;;4.63;4.33;;;;;;;;;;5049165;28;20467;-43
2023/08/31 11:25:09;;;;;;;4.50;4.20;;;;;;;;;;5055452;28;20974;-42
2023/08/31 11:27:37;;;;;;;4.57;4.17;;;;;;;;;;5052450;28;20772;-42
2023/08/31 11:30:05;;;;;;;4.47;4.27;;;;;;;;;;5053072;28;20535;-44
2023/08/31 11:32:32;;;;;;;3.63;3.53;;;;;;;;;;5055915;28;20517;-47
2023/08/31 11:35:01;;;;;;;3.63;3.53;;;;;;;;;;5054322;28;20455;-45
2023/08/31 11:37:29;;;;;;;3.53;3.43;;;;;;;;;;5060210;28;20431;-42
2023/08/31 11:40:00;;;;;;;3.60;3.40;;;;;;;;;;5059778;28;20461;-40
2023/08/31 11:42:28;;;;;;;3.57;3.37;;;;;;;;;;5059973;28;20517;-41
2023/08/31 11:44:55;;;;;;;3.80;3.60;;;;;;;;;;5059638;28;20455;-43
2023/08/31 11:47:23;;;;;;;4.50;4.10;;;;;;;;;;5059673;28;20930;-42
2023/08/31 11:49:51;;;;;;;4.17;3.97;;;;;;;;;;5051638;28;20466;-42
2023/08/31 11:52:19;;;;;;;3.70;3.60;;;;;;;;;;5059575;28;20486;-41
2023/08/31 11:54:52;;;;;;;3.50;3.40;;;;;;;;;;5059108;28;20965;-42
2023/08/31 11:57:26;;;;;;;3.77;3.47;;;;;;;;;;5052198;28;20510;-44
2023/08/31 11:59:53;;;;;;;3.53;3.37;;;;;;;;;;5060000;28;20439;-41
2023/08/31 12:02:20;;;;;;;3.33;3.10;;;;;;;;;;5059168;28;20433;-45
2023/08/31 12:04:48;;;;;;;3.20;3.00;;;;;;;;;;5056747;28;20522;-43
2023/08/31 12:07:17;;;;;;;3.20;3.00;;;;;;;;;;5059117;28;20439;-41
2023/08/31 12:09:45;;;;;;;3.50;3.20;;;;;;;;;;5059240;28;20918;-43
2023/08/31 12:12:14;;;;;;;3.40;3.20;;;;;;;;;;5059701;28;20438;-46
2023/08/31 12:14:44;;;;;;;3.20;3.00;;;;;;;;;;5046564;28;20837;-41
2023/08/31 12:17:11;;;;;;;3.50;3.30;;;;;;;;;;5051285;28;20442;-43
2023/08/31 12:19:41;;;;;;;4.20;3.90;;;;;;;;;;5034421;28;20879;-42
2023/08/31 12:22:12;;;;;;;4.70;3.70;;;;;;;;;;5034856;28;20432;-42
2023/08/31 12:24:41;;;;;;;3.90;3.47;;;;;;;;;;5032856;28;20537;-42
2023/08/31 12:27:08;;;;;;;4.53;4.13;;;;;;;;;;5043558;28;20494;-46
2023/08/31 12:29:36;;;;;;;3.37;3.17;;;;;;;;;;5043200;28;20458;-48
2023/08/31 12:32:05;;;;;;;3.37;3.20;;;;;;;;;;5041839;28;20922;-41
2023/08/31 12:34:33;;;;;;;4.63;3.07;;;;;;;;;;5048218;28;20496;-43
2023/08/31 12:37:02;;;;;;;3.80;3.13;;;;;;;;;;5051481;28;20430;-43
2023/08/31 12:39:30;;;;;;;3.10;3.00;;;;;;;;;;5069014;28;20484;-41
2023/08/31 12:41:57;;;;;;;3.43;3.23;;;;;;;;;;5070649;28;20453;-43
2023/08/31 12:44:39;;;;;;;3.23;3.03;;;;;;;;;;5067278;28;20509;-41
2023/08/31 12:47:08;;;;;;;3.10;3.00;;;;;;;;;;5042385;28;21192;-43
2023/08/31 12:49:36;;;;;;;3.00;2.90;;;;;;;;;;5050281;28;21140;-42
2023/08/31 12:52:03;;;;;;;3.53;3.33;;;;;;;;;;5050852;28;20434;-41
2023/08/31 12:54:31;;;;;;;3.40;3.20;;;;;;;;;;5050552;28;20482;-44
2023/08/31 12:56:58;;;;;;;3.63;3.43;;;;;;;;;;5045340;28;20443;-41
2023/08/31 12:59:25;;;;;;;3.33;3.13;;;;;;;;;;5047248;28;20441;-44
2023/08/31 13:01:53;;;;;;;3.23;3.03;;;;;;;;;;5043104;28;20536;-41
2023/08/31 13:04:22;;;;;;;3.07;2.87;;;;;;;;;;5033037;28;20501;-41
2023/08/31 13:06:49;;;;;;;3.20;3.00;;;;;;;;;;5046196;28;20455;-40
2023/08/31 13:09:17;;;;;;;3.40;3.20;;;;;;;;;;5038779;28;20488;-42
2023/08/31 13:11:44;;;;;;;3.77;3.57;;;;;;;;;;5046634;28;20463;-44
2023/08/31 13:14:13;;;;;;;3.23;3.03;;;;;;;;;;5037614;28;20581;-41
2023/08/31 13:16:40;;;;;;;3.27;2.97;;;;;;;;;;5047096;28;21066;-43
2023/08/31 13:19:08;;;;;;;3.50;3.30;;;;;;;;;;5036545;28;20466;-42
2023/08/31 13:21:37;;;;;;;3.30;3.10;;;;;;;;;;5048241;28;20434;-42
2023/08/31 13:24:04;;;;;;;3.03;2.80;;;;;;;;;;5035864;28;20513;-41
2023/08/31 13:26:32;;;;;;;3.40;3.20;;;;;;;;;;5049845;28;20459;-44
2023/08/31 13:28:59;;;;;;;3.77;3.47;;;;;;;;;;5050401;28;20522;-45
2023/08/31 13:31:28;;;;;;;2.83;2.73;;;;;;;;;;5050363;28;20479;-40
2023/08/31 13:33:56;;;;;;;3.33;3.03;;;;;;;;;;5049394;28;20537;-41
2023/08/31 13:36:23;;;;;;;4.80;3.20;;;;;;;;;;5041856;28;20466;-41
2023/08/31 13:38:52;;;;;;;3.23;2.93;;;;;;;;;;5049837;28;20431;-41
2023/08/31 13:41:19;;;;;;;2.70;2.50;;;;;;;;;;5041355;28;20439;-41
2023/08/31 13:43:47;;;;;;;3.00;2.80;;;;;;;;;;5038255;28;20525;-42
2023/08/31 13:46:14;;;;;;;3.00;2.77;;;;;;;;;;5045343;28;20454;-41
2023/08/31 13:48:42;;;;;;;3.00;2.80;;;;;;;;;;5048908;28;20972;-41
2023/08/31 13:51:09;;;;;;;2.70;2.50;;;;;;;;;;5050393;28;20437;-41
2023/08/31 13:53:37;;;;;;;2.90;2.70;;;;;;;;;;5049647;28;20454;-45
2023/08/31 13:56:06;;;;;;;2.67;2.47;;;;;;;;;;5049484;28;20462;-41
2023/08/31 13:58:33;;;;;;;3.00;2.37;;;;;;;;;;5049381;28;20526;-41
2023/08/31 14:01:01;;;;;;;2.83;2.70;;;;;;;;;;5049644;28;20436;-41
2023/08/31 14:03:28;;;;;;;4.30;2.77;;;;;;;;;;5048966;28;20551;-41
2023/08/31 14:05:56;;;;;;;2.87;2.57;;;;;;;;;;5049130;28;20826;-42
2023/08/31 14:08:24;;;;;;;2.63;2.53;;;;;;;;;;5041721;28;20442;-42
2023/08/31 14:10:53;;;;;;;3.00;2.90;;;;;;;;;;5038409;28;20441;-44
2023/08/31 14:13:22;;;;;;;2.93;2.73;;;;;;;;;;5037709;28;20559;-41
2023/08/31 14:15:49;;;;;;;3.07;2.90;;;;;;;;;;5052739;28;20698;-42
2023/08/31 14:18:17;;;;;;;4.50;3.00;;;;;;;;;;5060757;28;20440;-43
2023/08/31 14:20:45;;;;;;;3.10;2.70;;;;;;;;;;5069090;28;20441;-44
2023/08/31 14:23:12;;;;;;;3.53;3.23;;;;;;;;;;5054959;28;20554;-44
2023/08/31 14:25:40;;;;;;;3.00;2.63;;;;;;;;;;5057442;28;20466;-43
2023/08/31 14:28:07;;;;;;;4.63;2.60;;;;;;;;;;5049501;28;20523;-42
2023/08/31 14:30:37;;;;;;;5.23;2.80;;;;;;;;;;5061621;28;20442;-41
2023/08/31 14:33:05;;;;;;;2.83;2.73;;;;;;;;;;5072751;28;20487;-41
2023/08/31 14:35:32;;;;;;;2.90;2.70;;;;;;;;;;5055532;28;20462;-41
2023/08/31 14:38:00;;;;;;;4.27;2.77;;;;;;;;;;5053400;28;20438;-40